TAP3087 GMMN-LPPT
Flight info
| Callsign | TAP3087 |
|---|---|
| Flight time | 0h 58m |
| Altitude | 36000 |
| Route | LAKAM UR722 AMSEL DCT VATZI |
| Aircraft | A320/M-SDE3FGHIRWY/LB1 |
Departure
| Time | 2026-05-06 14:11 |
|---|---|
| Airport | Mohammed V International Airport (GMMN) |
Arrival
| Time | 2026-05-06 15:10 |
|---|---|
| Airport | Lisbon Humberto Delgado Airport (LPPT) |
| Time | Latitude | Longitude | Altitude | Speed | Heading |
|---|---|---|---|---|---|
| 2026-05-06 13:33 | 33.37269 | -7.58234 | 653 ft | 0 kts | 75° |
| 2026-05-06 13:59 | 33.37265 | -7.58254 | 653 ft | 4 kts | 77° |
| 2026-05-06 13:59 | 33.37260 | -7.58282 | 653 ft | 0 kts | 81° |
| 2026-05-06 14:02 | 33.37259 | -7.58291 | 653 ft | 4 kts | 83° |
| 2026-05-06 14:02 | 33.37257 | -7.58323 | 653 ft | 4 kts | 94° |
| 2026-05-06 14:02 | 33.37259 | -7.58341 | 653 ft | 1 kts | 99° |
| 2026-05-06 14:02 | 33.37259 | -7.58343 | 653 ft | 0 kts | 99° |
| 2026-05-06 14:05 | 33.37259 | -7.58342 | 653 ft | 2 kts | 100° |
| 2026-05-06 14:06 | 33.37217 | -7.58308 | 654 ft | 14 kts | 158° |
| 2026-05-06 14:06 | 33.37116 | -7.58276 | 654 ft | 15 kts | 164° |
| 2026-05-06 14:06 | 33.37021 | -7.58244 | 653 ft | 14 kts | 164° |
| 2026-05-06 14:06 | 33.36943 | -7.58252 | 654 ft | 11 kts | 227° |
| 2026-05-06 14:07 | 33.36922 | -7.58333 | 655 ft | 10 kts | 255° |
| 2026-05-06 14:07 | 33.36901 | -7.58421 | 653 ft | 12 kts | 254° |
| 2026-05-06 14:07 | 33.36846 | -7.58462 | 653 ft | 10 kts | 165° |
| 2026-05-06 14:07 | 33.36754 | -7.58430 | 654 ft | 23 kts | 164° |
| 2026-05-06 14:08 | 33.36580 | -7.58371 | 653 ft | 22 kts | 164° |
| 2026-05-06 14:08 | 33.36424 | -7.58318 | 654 ft | 28 kts | 164° |
| 2026-05-06 14:08 | 33.36229 | -7.58250 | 655 ft | 28 kts | 163° |
| 2026-05-06 14:08 | 33.36053 | -7.58190 | 652 ft | 27 kts | 164° |
| 2026-05-06 14:09 | 33.35869 | -7.58127 | 652 ft | 28 kts | 164° |
| 2026-05-06 14:09 | 33.35680 | -7.58063 | 654 ft | 29 kts | 165° |
| 2026-05-06 14:09 | 33.35489 | -7.57997 | 652 ft | 28 kts | 164° |
| 2026-05-06 14:09 | 33.35314 | -7.57945 | 653 ft | 22 kts | 181° |
| 2026-05-06 14:10 | 33.35245 | -7.58041 | 653 ft | 15 kts | 253° |
| 2026-05-06 14:10 | 33.35226 | -7.58120 | 655 ft | 9 kts | 254° |
| 2026-05-06 14:10 | 33.35214 | -7.58201 | 654 ft | 13 kts | 272° |
| 2026-05-06 14:10 | 33.35285 | -7.58286 | 654 ft | 18 kts | 343° |
| 2026-05-06 14:11 | 33.35495 | -7.58356 | 647 ft | 61 kts | 344° |
| 2026-05-06 14:11 | 33.36129 | -7.58575 | 646 ft | 125 kts | 343° |
| 2026-05-06 14:11 | 33.37112 | -7.58917 | 798 ft | 159 kts | 342° |
| 2026-05-06 14:11 | 33.38167 | -7.59279 | 1546 ft | 157 kts | 345° |
| 2026-05-06 14:12 | 33.39215 | -7.59611 | 2261 ft | 159 kts | 343° |
| 2026-05-06 14:12 | 33.40339 | -7.60102 | 2568 ft | 184 kts | 336° |
| 2026-05-06 14:12 | 33.41518 | -7.60867 | 2943 ft | 205 kts | 328° |
| 2026-05-06 14:12 | 33.42718 | -7.61965 | 3401 ft | 227 kts | 319° |
| 2026-05-06 14:13 | 33.43814 | -7.63359 | 4265 ft | 234 kts | 309° |
| 2026-05-06 14:13 | 33.44767 | -7.64986 | 5055 ft | 243 kts | 303° |
| 2026-05-06 14:13 | 33.45707 | -7.66685 | 5967 ft | 246 kts | 301° |
| 2026-05-06 14:13 | 33.46664 | -7.68405 | 6858 ft | 250 kts | 300° |
| 2026-05-06 14:14 | 33.47632 | -7.70145 | 7728 ft | 253 kts | 300° |
| 2026-05-06 14:14 | 33.48614 | -7.71914 | 8599 ft | 257 kts | 301° |
| 2026-05-06 14:14 | 33.49613 | -7.73716 | 9450 ft | 262 kts | 301° |
| 2026-05-06 14:14 | 33.50630 | -7.75551 | 10259 ft | 266 kts | 301° |
| 2026-05-06 14:15 | 33.51663 | -7.77404 | 11082 ft | 268 kts | 301° |
| 2026-05-06 14:15 | 33.52701 | -7.79271 | 11924 ft | 270 kts | 301° |
| 2026-05-06 14:15 | 33.53742 | -7.81151 | 12751 ft | 272 kts | 300° |
| 2026-05-06 14:15 | 33.54791 | -7.83049 | 13602 ft | 274 kts | 300° |
| 2026-05-06 14:16 | 33.55847 | -7.84957 | 14337 ft | 276 kts | 300° |
| 2026-05-06 14:16 | 33.56982 | -7.86826 | 15062 ft | 281 kts | 310° |
| 2026-05-06 14:16 | 33.58573 | -7.88236 | 15757 ft | 292 kts | 330° |
| 2026-05-06 14:16 | 33.60557 | -7.88910 | 16179 ft | 315 kts | 352° |
| 2026-05-06 14:17 | 33.62869 | -7.88619 | 16337 ft | 345 kts | 8° |
| 2026-05-06 14:17 | 33.65255 | -7.87985 | 16480 ft | 366 kts | 9° |
| 2026-05-06 14:17 | 33.67787 | -7.87301 | 16921 ft | 376 kts | 9° |
| 2026-05-06 14:17 | 33.70363 | -7.86604 | 17566 ft | 382 kts | 8° |
| 2026-05-06 14:18 | 33.72967 | -7.85904 | 18230 ft | 385 kts | 8° |
| 2026-05-06 14:18 | 33.75599 | -7.85202 | 18784 ft | 390 kts | 8° |
| 2026-05-06 14:18 | 33.78262 | -7.84500 | 19338 ft | 394 kts | 8° |
| 2026-05-06 14:18 | 33.80954 | -7.83793 | 19895 ft | 398 kts | 8° |
| 2026-05-06 14:19 | 33.83672 | -7.83081 | 20448 ft | 402 kts | 8° |
| 2026-05-06 14:19 | 33.86418 | -7.82362 | 21007 ft | 406 kts | 7° |
| 2026-05-06 14:19 | 33.89187 | -7.81634 | 21554 ft | 410 kts | 7° |
| 2026-05-06 14:19 | 33.91983 | -7.80895 | 21977 ft | 408 kts | 7° |
| 2026-05-06 14:20 | 33.94691 | -7.80174 | 22094 ft | 391 kts | 7° |
| 2026-05-06 14:20 | 33.97391 | -7.79466 | 22257 ft | 404 kts | 7° |
| 2026-05-06 14:20 | 34.00087 | -7.78761 | 22374 ft | 389 kts | 7° |
| 2026-05-06 14:20 | 34.02775 | -7.78059 | 22513 ft | 404 kts | 7° |
| 2026-05-06 14:21 | 34.05572 | -7.77333 | 22741 ft | 417 kts | 7° |
| 2026-05-06 14:21 | 34.08426 | -7.76583 | 23213 ft | 423 kts | 7° |
| 2026-05-06 14:21 | 34.11275 | -7.75828 | 23698 ft | 427 kts | 7° |
| 2026-05-06 14:21 | 34.14194 | -7.75053 | 24137 ft | 431 kts | 7° |
| 2026-05-06 14:22 | 34.17136 | -7.74303 | 24565 ft | 433 kts | 4° |
| 2026-05-06 14:22 | 34.20126 | -7.73977 | 24992 ft | 429 kts | 354° |
| 2026-05-06 14:22 | 34.23101 | -7.74132 | 25416 ft | 429 kts | 350° |
| 2026-05-06 14:22 | 34.26091 | -7.74349 | 25843 ft | 433 kts | 350° |
| 2026-05-06 14:23 | 34.29109 | -7.74567 | 26252 ft | 436 kts | 350° |
| 2026-05-06 14:23 | 34.32147 | -7.74780 | 26657 ft | 439 kts | 350° |
| 2026-05-06 14:23 | 34.35206 | -7.74987 | 27050 ft | 442 kts | 350° |
| 2026-05-06 14:23 | 34.38285 | -7.75196 | 27439 ft | 445 kts | 350° |
| 2026-05-06 14:24 | 34.41385 | -7.75411 | 27825 ft | 448 kts | 349° |
| 2026-05-06 14:24 | 34.44509 | -7.75627 | 28206 ft | 450 kts | 349° |
| 2026-05-06 14:24 | 34.47646 | -7.75842 | 28581 ft | 453 kts | 349° |
| 2026-05-06 14:24 | 34.50806 | -7.76061 | 28970 ft | 456 kts | 350° |
| 2026-05-06 14:25 | 34.53942 | -7.76279 | 29314 ft | 459 kts | 349° |
| 2026-05-06 14:25 | 34.57140 | -7.76502 | 29658 ft | 462 kts | 349° |
| 2026-05-06 14:25 | 34.60360 | -7.76727 | 29998 ft | 464 kts | 349° |
| 2026-05-06 14:25 | 34.63590 | -7.76955 | 30287 ft | 467 kts | 349° |
| 2026-05-06 14:26 | 34.66842 | -7.77184 | 30578 ft | 469 kts | 349° |
| 2026-05-06 14:26 | 34.70108 | -7.77412 | 30854 ft | 471 kts | 349° |
| 2026-05-06 14:26 | 34.73390 | -7.77643 | 31125 ft | 473 kts | 349° |
| 2026-05-06 14:26 | 34.76684 | -7.77883 | 31438 ft | 474 kts | 350° |
| 2026-05-06 14:27 | 34.79979 | -7.78147 | 31745 ft | 474 kts | 349° |
| 2026-05-06 14:27 | 34.83263 | -7.78427 | 32138 ft | 473 kts | 349° |
| 2026-05-06 14:27 | 34.86542 | -7.78713 | 32518 ft | 472 kts | 349° |
| 2026-05-06 14:27 | 34.89815 | -7.78996 | 32892 ft | 471 kts | 349° |
| 2026-05-06 14:28 | 34.93079 | -7.79273 | 33261 ft | 470 kts | 349° |
| 2026-05-06 14:28 | 34.96298 | -7.79541 | 33629 ft | 469 kts | 349° |
| 2026-05-06 14:28 | 34.99551 | -7.79808 | 34007 ft | 468 kts | 349° |
| 2026-05-06 14:28 | 35.02796 | -7.80075 | 34403 ft | 466 kts | 350° |
| 2026-05-06 14:29 | 35.06017 | -7.80343 | 34756 ft | 464 kts | 349° |
| 2026-05-06 14:29 | 35.09233 | -7.80614 | 35072 ft | 462 kts | 349° |
| 2026-05-06 14:29 | 35.12438 | -7.80882 | 35364 ft | 461 kts | 349° |
| 2026-05-06 14:29 | 35.15639 | -7.81150 | 35644 ft | 461 kts | 349° |
| 2026-05-06 14:30 | 35.18838 | -7.81421 | 35902 ft | 461 kts | 349° |
| 2026-05-06 14:30 | 35.22048 | -7.81694 | 35984 ft | 465 kts | 349° |
| 2026-05-06 14:30 | 35.28575 | -7.82255 | 35990 ft | 475 kts | 350° |
| 2026-05-06 14:31 | 35.35208 | -7.82818 | 35994 ft | 481 kts | 350° |
| 2026-05-06 14:31 | 35.41926 | -7.83380 | 35994 ft | 485 kts | 350° |
| 2026-05-06 14:32 | 35.48636 | -7.83963 | 35994 ft | 488 kts | 350° |
| 2026-05-06 14:32 | 35.55424 | -7.84580 | 35988 ft | 490 kts | 350° |
| 2026-05-06 14:33 | 35.62244 | -7.85205 | 35989 ft | 491 kts | 350° |
| 2026-05-06 14:33 | 35.65610 | -7.85508 | 35984 ft | 475 kts | 350° |
| 2026-05-06 14:33 | 35.68846 | -7.85792 | 35989 ft | 458 kts | 350° |
| 2026-05-06 14:34 | 35.75111 | -7.86353 | 35987 ft | 448 kts | 350° |
| 2026-05-06 14:34 | 35.81269 | -7.86926 | 35984 ft | 446 kts | 349° |
| 2026-05-06 14:35 | 35.87463 | -7.87498 | 35987 ft | 446 kts | 350° |
| 2026-05-06 14:35 | 35.93640 | -7.88072 | 35654 ft | 441 kts | 347° |
| 2026-05-06 14:36 | 35.96626 | -7.88743 | 35151 ft | 432 kts | 338° |
| 2026-05-06 14:36 | 35.99433 | -7.89962 | 34985 ft | 425 kts | 330° |
| 2026-05-06 14:36 | 36.04757 | -7.93107 | 34986 ft | 424 kts | 329° |
| 2026-05-06 14:37 | 36.10098 | -7.96239 | 34984 ft | 425 kts | 329° |
| 2026-05-06 14:37 | 36.15405 | -7.99349 | 34981 ft | 424 kts | 329° |
| 2026-05-06 14:38 | 36.20736 | -8.02495 | 34983 ft | 424 kts | 329° |
| 2026-05-06 14:38 | 36.26066 | -8.05650 | 34998 ft | 424 kts | 329° |
| 2026-05-06 14:39 | 36.31396 | -8.08798 | 34996 ft | 424 kts | 329° |
| 2026-05-06 14:39 | 36.36711 | -8.11956 | 34994 ft | 424 kts | 329° |
| 2026-05-06 14:40 | 36.42035 | -8.15121 | 34977 ft | 424 kts | 329° |
| 2026-05-06 14:40 | 36.47353 | -8.18277 | 34989 ft | 423 kts | 329° |
| 2026-05-06 14:41 | 36.52628 | -8.21420 | 34993 ft | 423 kts | 329° |
| 2026-05-06 14:41 | 36.57942 | -8.24584 | 34983 ft | 422 kts | 329° |
| 2026-05-06 14:42 | 36.63237 | -8.27745 | 34981 ft | 422 kts | 329° |
| 2026-05-06 14:42 | 36.68529 | -8.30907 | 34972 ft | 421 kts | 329° |
| 2026-05-06 14:43 | 36.73812 | -8.34077 | 34985 ft | 421 kts | 330° |
| 2026-05-06 14:43 | 36.79071 | -8.37239 | 34987 ft | 419 kts | 330° |
| 2026-05-06 14:44 | 36.84324 | -8.40400 | 34978 ft | 418 kts | 330° |
| 2026-05-06 14:45 | 36.92133 | -8.45104 | 34974 ft | 416 kts | 330° |
| 2026-05-06 14:45 | 36.97345 | -8.48249 | 34985 ft | 416 kts | 330° |
| 2026-05-06 14:46 | 37.02551 | -8.51395 | 34986 ft | 415 kts | 330° |
| 2026-05-06 14:46 | 37.07752 | -8.54537 | 34977 ft | 415 kts | 330° |
| 2026-05-06 14:46 | 37.10372 | -8.56125 | 34740 ft | 422 kts | 330° |
| 2026-05-06 14:47 | 37.13038 | -8.57745 | 33846 ft | 429 kts | 331° |
| 2026-05-06 14:47 | 37.15715 | -8.59371 | 33290 ft | 424 kts | 331° |
| 2026-05-06 14:47 | 37.18349 | -8.60967 | 32790 ft | 418 kts | 331° |
| 2026-05-06 14:47 | 37.20951 | -8.62545 | 32273 ft | 413 kts | 330° |
| 2026-05-06 14:48 | 37.23496 | -8.64091 | 31778 ft | 409 kts | 330° |
| 2026-05-06 14:48 | 37.26037 | -8.65639 | 31302 ft | 405 kts | 330° |
| 2026-05-06 14:48 | 37.28560 | -8.67179 | 30824 ft | 401 kts | 330° |
| 2026-05-06 14:48 | 37.31114 | -8.68607 | 30075 ft | 408 kts | 339° |
| 2026-05-06 14:49 | 37.33921 | -8.69480 | 28882 ft | 422 kts | 343° |
| 2026-05-06 14:49 | 37.36761 | -8.70275 | 28109 ft | 413 kts | 343° |
| 2026-05-06 14:49 | 37.39542 | -8.71034 | 27202 ft | 406 kts | 344° |
| 2026-05-06 14:49 | 37.42288 | -8.71780 | 26283 ft | 400 kts | 344° |
| 2026-05-06 14:50 | 37.44082 | -8.72271 | 25708 ft | 396 kts | 344° |
| 2026-05-06 14:50 | 37.46754 | -8.73010 | 24840 ft | 391 kts | 344° |
| 2026-05-06 14:50 | 37.49416 | -8.73753 | 24189 ft | 391 kts | 343° |
| 2026-05-06 14:50 | 37.52919 | -8.74739 | 23595 ft | 388 kts | 343° |
| 2026-05-06 14:51 | 37.54692 | -8.75239 | 23229 ft | 386 kts | 343° |
| 2026-05-06 14:51 | 37.57305 | -8.75976 | 22700 ft | 383 kts | 344° |
| 2026-05-06 14:51 | 37.59899 | -8.76706 | 22196 ft | 381 kts | 344° |
| 2026-05-06 14:51 | 37.62475 | -8.77430 | 21701 ft | 378 kts | 344° |
| 2026-05-06 14:52 | 37.65031 | -8.78148 | 21231 ft | 375 kts | 344° |
| 2026-05-06 14:52 | 37.67575 | -8.78862 | 20755 ft | 372 kts | 345° |
| 2026-05-06 14:52 | 37.70094 | -8.79573 | 20307 ft | 370 kts | 344° |
| 2026-05-06 14:52 | 37.72596 | -8.80284 | 19838 ft | 367 kts | 343° |
| 2026-05-06 14:53 | 37.75081 | -8.80988 | 19383 ft | 365 kts | 343° |
| 2026-05-06 14:53 | 37.77518 | -8.81674 | 18955 ft | 362 kts | 345° |
| 2026-05-06 14:53 | 37.79969 | -8.82366 | 18459 ft | 357 kts | 343° |
| 2026-05-06 14:53 | 37.82385 | -8.83049 | 17569 ft | 354 kts | 345° |
| 2026-05-06 14:54 | 37.84773 | -8.83725 | 16734 ft | 350 kts | 345° |
| 2026-05-06 14:54 | 37.87106 | -8.84384 | 16273 ft | 336 kts | 343° |
| 2026-05-06 14:54 | 37.89338 | -8.85011 | 15880 ft | 322 kts | 343° |
| 2026-05-06 14:54 | 37.91481 | -8.85614 | 15489 ft | 309 kts | 344° |
| 2026-05-06 14:55 | 37.93550 | -8.86200 | 15134 ft | 302 kts | 346° |
| 2026-05-06 14:55 | 37.95605 | -8.86789 | 14761 ft | 303 kts | 342° |
| 2026-05-06 14:55 | 37.97668 | -8.87381 | 14397 ft | 304 kts | 344° |
| 2026-05-06 14:55 | 37.99738 | -8.87975 | 14017 ft | 305 kts | 344° |
| 2026-05-06 14:56 | 38.01814 | -8.88569 | 13625 ft | 306 kts | 346° |
| 2026-05-06 14:56 | 38.03865 | -8.89151 | 13237 ft | 305 kts | 344° |
| 2026-05-06 14:56 | 38.05935 | -8.89740 | 12852 ft | 305 kts | 345° |
| 2026-05-06 14:56 | 38.08000 | -8.90327 | 12471 ft | 303 kts | 345° |
| 2026-05-06 14:57 | 38.10055 | -8.90913 | 12074 ft | 302 kts | 344° |
| 2026-05-06 14:57 | 38.12109 | -8.91500 | 11693 ft | 302 kts | 345° |
| 2026-05-06 14:57 | 38.14154 | -8.92086 | 11303 ft | 301 kts | 346° |
| 2026-05-06 14:57 | 38.16191 | -8.92666 | 10903 ft | 300 kts | 345° |
| 2026-05-06 14:58 | 38.18225 | -8.93245 | 10502 ft | 299 kts | 346° |
| 2026-05-06 14:58 | 38.20239 | -8.93816 | 10220 ft | 294 kts | 345° |
| 2026-05-06 14:58 | 38.22240 | -8.94390 | 9857 ft | 293 kts | 345° |
| 2026-05-06 14:58 | 38.24207 | -8.94957 | 9301 ft | 287 kts | 346° |
| 2026-05-06 14:59 | 38.26121 | -8.95506 | 8877 ft | 274 kts | 346° |
| 2026-05-06 14:59 | 38.27941 | -8.96027 | 8495 ft | 262 kts | 347° |
| 2026-05-06 14:59 | 38.29681 | -8.96525 | 8112 ft | 253 kts | 347° |
| 2026-05-06 14:59 | 38.31406 | -8.97020 | 7741 ft | 254 kts | 347° |
| 2026-05-06 15:00 | 38.33116 | -8.97516 | 7373 ft | 249 kts | 345° |
| 2026-05-06 15:00 | 38.34667 | -8.98442 | 7312 ft | 249 kts | 324° |
| 2026-05-06 15:00 | 38.36011 | -8.99787 | 7260 ft | 248 kts | 322° |
| 2026-05-06 15:00 | 38.37363 | -9.01162 | 7202 ft | 249 kts | 322° |
| 2026-05-06 15:01 | 38.38732 | -9.02565 | 7126 ft | 261 kts | 322° |
| 2026-05-06 15:01 | 38.40057 | -9.04132 | 6937 ft | 256 kts | 316° |
| 2026-05-06 15:01 | 38.41307 | -9.05689 | 6838 ft | 241 kts | 321° |
| 2026-05-06 15:01 | 38.42543 | -9.06991 | 6903 ft | 224 kts | 323° |
| 2026-05-06 15:02 | 38.43777 | -9.08200 | 6734 ft | 219 kts | 324° |
| 2026-05-06 15:02 | 38.44989 | -9.09373 | 6681 ft | 219 kts | 324° |
| 2026-05-06 15:02 | 38.46194 | -9.10549 | 6455 ft | 218 kts | 325° |
| 2026-05-06 15:02 | 38.47390 | -9.11729 | 6155 ft | 216 kts | 324° |
| 2026-05-06 15:03 | 38.48578 | -9.12912 | 5808 ft | 216 kts | 323° |
| 2026-05-06 15:03 | 38.49754 | -9.14091 | 5479 ft | 213 kts | 323° |
| 2026-05-06 15:03 | 38.50911 | -9.15256 | 5011 ft | 212 kts | 323° |
| 2026-05-06 15:03 | 38.52011 | -9.16365 | 4879 ft | 196 kts | 323° |
| 2026-05-06 15:04 | 38.53034 | -9.17400 | 4738 ft | 177 kts | 323° |
| 2026-05-06 15:04 | 38.53949 | -9.18330 | 4611 ft | 161 kts | 323° |
| 2026-05-06 15:04 | 38.54793 | -9.19189 | 4476 ft | 150 kts | 324° |
| 2026-05-06 15:04 | 38.55585 | -9.19994 | 4338 ft | 142 kts | 324° |
| 2026-05-06 15:05 | 38.56353 | -9.20774 | 4096 ft | 142 kts | 323° |
| 2026-05-06 15:05 | 38.57210 | -9.21637 | 3988 ft | 170 kts | 324° |
| 2026-05-06 15:05 | 38.58163 | -9.22563 | 3973 ft | 174 kts | 330° |
| 2026-05-06 15:05 | 38.59299 | -9.23091 | 3892 ft | 177 kts | 353° |
| 2026-05-06 15:06 | 38.60516 | -9.22972 | 3730 ft | 176 kts | 15° |
| 2026-05-06 15:06 | 38.61651 | -9.22387 | 3522 ft | 174 kts | 18° |
| 2026-05-06 15:06 | 38.62768 | -9.21791 | 3304 ft | 174 kts | 18° |
| 2026-05-06 15:06 | 38.63891 | -9.21193 | 3071 ft | 175 kts | 19° |
| 2026-05-06 15:07 | 38.65010 | -9.20596 | 2834 ft | 174 kts | 19° |
| 2026-05-06 15:07 | 38.66123 | -9.20004 | 2600 ft | 173 kts | 19° |
| 2026-05-06 15:07 | 38.67216 | -9.19421 | 2362 ft | 172 kts | 18° |
| 2026-05-06 15:07 | 38.68332 | -9.18827 | 2119 ft | 173 kts | 18° |
| 2026-05-06 15:08 | 38.69428 | -9.18242 | 1887 ft | 171 kts | 19° |
| 2026-05-06 15:08 | 38.70458 | -9.17690 | 1671 ft | 150 kts | 17° |
| 2026-05-06 15:08 | 38.71386 | -9.17194 | 1463 ft | 140 kts | 16° |
| 2026-05-06 15:08 | 38.72274 | -9.16722 | 1291 ft | 140 kts | 18° |
| 2026-05-06 15:09 | 38.73165 | -9.16247 | 1098 ft | 137 kts | 16° |
| 2026-05-06 15:09 | 38.74045 | -9.15769 | 928 ft | 136 kts | 16° |
| 2026-05-06 15:09 | 38.74921 | -9.15303 | 716 ft | 135 kts | 17° |
| 2026-05-06 15:09 | 38.75802 | -9.14825 | 575 ft | 138 kts | 19° |
| 2026-05-06 15:10 | 38.76690 | -9.14356 | 355 ft | 137 kts | 18° |
| 2026-05-06 15:10 | 38.77438 | -9.13969 | 365 ft | 92 kts | 22° |
| 2026-05-06 15:10 | 38.77868 | -9.13735 | 363 ft | 42 kts | 22° |
| 2026-05-06 15:10 | 38.78098 | -9.13612 | 366 ft | 42 kts | 23° |
| 2026-05-06 15:11 | 38.78324 | -9.13422 | 364 ft | 40 kts | 46° |
| 2026-05-06 15:11 | 38.78362 | -9.13364 | 363 ft | 4 kts | 51° |
| 2026-05-06 15:11 | 38.78376 | -9.13321 | 362 ft | 0 kts | 85° |
| 2026-05-06 15:11 | 38.78377 | -9.13317 | 362 ft | 0 kts | 85° |
| 2026-05-06 15:13 | 38.78367 | -9.13284 | 366 ft | 0 kts | 124° |
| 2026-05-06 15:14 | 38.78317 | -9.13272 | 359 ft | 18 kts | 181° |
| 2026-05-06 15:14 | 38.78199 | -9.13329 | 359 ft | 18 kts | 201° |
| 2026-05-06 15:15 | 38.78090 | -9.13385 | 360 ft | 16 kts | 202° |
| 2026-05-06 15:15 | 38.77982 | -9.13405 | 355 ft | 17 kts | 167° |
| 2026-05-06 15:15 | 38.77856 | -9.13371 | 348 ft | 20 kts | 168° |
| 2026-05-06 15:15 | 38.77714 | -9.13332 | 338 ft | 23 kts | 169° |
| 2026-05-06 15:16 | 38.77606 | -9.13320 | 338 ft | 13 kts | 178° |
| 2026-05-06 15:16 | 38.77519 | -9.13302 | 334 ft | 12 kts | 167° |
| 2026-05-06 15:16 | 38.77437 | -9.13282 | 338 ft | 11 kts | 171° |
| 2026-05-06 15:16 | 38.77364 | -9.13265 | 338 ft | 10 kts | 170° |
| 2026-05-06 15:17 | 38.77298 | -9.13251 | 338 ft | 9 kts | 169° |
| 2026-05-06 15:17 | 38.77264 | -9.13243 | 336 ft | 0 kts | 168° |
| 2026-05-06 15:17 | 38.77261 | -9.13242 | 338 ft | 0 kts | 168° |
| 2026-05-06 15:18 | 38.77257 | -9.13240 | 338 ft | 5 kts | 167° |
| 2026-05-06 15:18 | 38.77248 | -9.13188 | 337 ft | 5 kts | 78° |
| 2026-05-06 15:19 | 38.77253 | -9.13157 | 335 ft | 4 kts | 77° |
| 2026-05-06 15:19 | 38.77255 | -9.13149 | 336 ft | 0 kts | 77° |